sensor_id;sensor_type;location;lat;lon;timestamp;P1;durP1;ratioP1;P2;durP2;ratioP2
37785;SDS011;23625;48.784;9.336;2022-12-18T00:01:30;59.45;;;17.80;;
37785;SDS011;23625;48.784;9.336;2022-12-18T00:03:58;64.00;;;18.58;;
37785;SDS011;23625;48.784;9.336;2022-12-18T00:06:26;65.93;;;19.40;;
37785;SDS011;23625;48.784;9.336;2022-12-18T00:08:53;56.58;;;19.02;;
37785;SDS011;23625;48.784;9.336;2022-12-18T00:11:21;60.42;;;19.10;;
37785;SDS011;23625;48.784;9.336;2022-12-18T00:13:48;58.10;;;17.92;;
37785;SDS011;23625;48.784;9.336;2022-12-18T00:16:15;54.53;;;17.33;;
37785;SDS011;23625;48.784;9.336;2022-12-18T00:18:45;72.18;;;20.63;;
37785;SDS011;23625;48.784;9.336;2022-12-18T00:21:12;70.22;;;20.33;;
37785;SDS011;23625;48.784;9.336;2022-12-18T00:23:38;56.38;;;18.70;;
37785;SDS011;23625;48.784;9.336;2022-12-18T00:26:06;64.55;;;19.88;;
37785;SDS011;23625;48.784;9.336;2022-12-18T00:28:35;67.43;;;19.67;;
37785;SDS011;23625;48.784;9.336;2022-12-18T00:33:27;61.08;;;18.52;;
37785;SDS011;23625;48.784;9.336;2022-12-18T00:35:53;56.67;;;19.20;;
37785;SDS011;23625;48.784;9.336;2022-12-18T00:38:18;60.45;;;18.65;;
37785;SDS011;23625;48.784;9.336;2022-12-18T00:40:44;58.63;;;18.35;;
37785;SDS011;23625;48.784;9.336;2022-12-18T00:43:10;60.97;;;18.70;;
37785;SDS011;23625;48.784;9.336;2022-12-18T00:45:35;63.72;;;18.27;;
37785;SDS011;23625;48.784;9.336;2022-12-18T00:48:01;66.45;;;18.88;;
37785;SDS011;23625;48.784;9.336;2022-12-18T00:50:26;62.80;;;18.83;;
37785;SDS011;23625;48.784;9.336;2022-12-18T00:52:52;72.18;;;20.23;;
37785;SDS011;23625;48.784;9.336;2022-12-18T00:55:18;59.25;;;19.08;;
37785;SDS011;23625;48.784;9.336;2022-12-18T00:57:43;74.78;;;18.88;;
37785;SDS011;23625;48.784;9.336;2022-12-18T01:00:11;61.03;;;18.15;;
37785;SDS011;23625;48.784;9.336;2022-12-18T01:02:39;60.92;;;17.90;;
37785;SDS011;23625;48.784;9.336;2022-12-18T01:05:05;56.53;;;18.05;;
37785;SDS011;23625;48.784;9.336;2022-12-18T01:07:31;59.15;;;20.02;;
37785;SDS011;23625;48.784;9.336;2022-12-18T01:09:57;72.93;;;18.33;;
37785;SDS011;23625;48.784;9.336;2022-12-18T01:12:22;58.08;;;17.90;;
37785;SDS011;23625;48.784;9.336;2022-12-18T01:14:48;67.88;;;20.60;;
37785;SDS011;23625;48.784;9.336;2022-12-18T01:17:14;60.92;;;18.85;;
37785;SDS011;23625;48.784;9.336;2022-12-18T01:19:39;58.28;;;18.63;;
37785;SDS011;23625;48.784;9.336;2022-12-18T01:22:05;66.05;;;19.55;;
37785;SDS011;23625;48.784;9.336;2022-12-18T01:24:31;66.30;;;19.38;;
37785;SDS011;23625;48.784;9.336;2022-12-18T01:26:56;64.32;;;20.13;;
37785;SDS011;23625;48.784;9.336;2022-12-18T01:29:22;61.85;;;18.27;;
37785;SDS011;23625;48.784;9.336;2022-12-18T01:31:48;60.10;;;19.33;;
37785;SDS011;23625;48.784;9.336;2022-12-18T01:34:14;52.80;;;17.95;;
37785;SDS011;23625;48.784;9.336;2022-12-18T01:36:40;59.70;;;17.10;;
37785;SDS011;23625;48.784;9.336;2022-12-18T01:39:07;74.88;;;19.77;;
37785;SDS011;23625;48.784;9.336;2022-12-18T01:41:36;68.32;;;19.60;;
37785;SDS011;23625;48.784;9.336;2022-12-18T01:52:47;62.60;;;17.15;;
37785;SDS011;23625;48.784;9.336;2022-12-18T01:55:18;65.35;;;17.65;;
37785;SDS011;23625;48.784;9.336;2022-12-18T01:57:47;68.00;;;20.65;;
37785;SDS011;23625;48.784;9.336;2022-12-18T02:00:17;65.22;;;19.05;;
37785;SDS011;23625;48.784;9.336;2022-12-18T02:02:45;65.63;;;19.42;;
37785;SDS011;23625;48.784;9.336;2022-12-18T02:05:12;80.18;;;18.95;;
37785;SDS011;23625;48.784;9.336;2022-12-18T02:07:47;60.67;;;18.02;;
37785;SDS011;23625;48.784;9.336;2022-12-18T02:13:28;53.80;;;17.80;;
37785;SDS011;23625;48.784;9.336;2022-12-18T02:16:06;51.65;;;17.08;;
37785;SDS011;23625;48.784;9.336;2022-12-18T02:18:41;67.20;;;19.52;;
37785;SDS011;23625;48.784;9.336;2022-12-18T02:21:17;72.25;;;19.48;;
37785;SDS011;23625;48.784;9.336;2022-12-18T02:26:42;67.40;;;18.70;;
37785;SDS011;23625;48.784;9.336;2022-12-18T02:29:13;111.05;;;27.02;;
37785;SDS011;23625;48.784;9.336;2022-12-18T02:32:00;78.18;;;21.10;;
37785;SDS011;23625;48.784;9.336;2022-12-18T02:34:29;62.63;;;17.35;;
37785;SDS011;23625;48.784;9.336;2022-12-18T02:36:58;48.53;;;16.38;;
37785;SDS011;23625;48.784;9.336;2022-12-18T02:39:27;60.72;;;17.50;;
37785;SDS011;23625;48.784;9.336;2022-12-18T02:41:56;53.67;;;17.75;;
37785;SDS011;23625;48.784;9.336;2022-12-18T02:44:23;62.03;;;16.95;;
37785;SDS011;23625;48.784;9.336;2022-12-18T02:46:49;64.87;;;17.53;;
37785;SDS011;23625;48.784;9.336;2022-12-18T02:54:52;90.07;;;28.35;;
37785;SDS011;23625;48.784;9.336;2022-12-18T02:59:58;71.97;;;20.95;;
37785;SDS011;23625;48.784;9.336;2022-12-18T03:02:37;72.05;;;21.35;;
37785;SDS011;23625;48.784;9.336;2022-12-18T03:07:44;75.20;;;20.17;;
37785;SDS011;23625;48.784;9.336;2022-12-18T03:10:31;85.57;;;22.80;;
37785;SDS011;23625;48.784;9.336;2022-12-18T03:13:04;82.47;;;21.95;;
37785;SDS011;23625;48.784;9.336;2022-12-18T03:15:36;86.00;;;23.63;;
37785;SDS011;23625;48.784;9.336;2022-12-18T03:18:07;74.53;;;21.45;;
37785;SDS011;23625;48.784;9.336;2022-12-18T03:20:37;65.38;;;20.80;;
37785;SDS011;23625;48.784;9.336;2022-12-18T03:23:09;90.40;;;24.30;;
37785;SDS011;23625;48.784;9.336;2022-12-18T03:25:43;86.40;;;24.42;;
37785;SDS011;23625;48.784;9.336;2022-12-18T03:28:14;98.43;;;24.73;;
37785;SDS011;23625;48.784;9.336;2022-12-18T03:30:44;80.63;;;21.75;;
37785;SDS011;23625;48.784;9.336;2022-12-18T03:33:24;85.18;;;24.05;;
37785;SDS011;23625;48.784;9.336;2022-12-18T03:35:52;92.68;;;22.95;;
37785;SDS011;23625;48.784;9.336;2022-12-18T03:38:18;85.07;;;23.50;;
37785;SDS011;23625;48.784;9.336;2022-12-18T03:43:32;86.38;;;22.98;;
37785;SDS011;23625;48.784;9.336;2022-12-18T03:46:02;78.47;;;23.38;;
37785;SDS011;23625;48.784;9.336;2022-12-18T03:48:38;78.75;;;22.88;;
37785;SDS011;23625;48.784;9.336;2022-12-18T03:51:24;86.75;;;23.48;;
37785;SDS011;23625;48.784;9.336;2022-12-18T03:54:02;92.10;;;23.75;;
37785;SDS011;23625;48.784;9.336;2022-12-18T03:56:31;93.25;;;27.40;;
37785;SDS011;23625;48.784;9.336;2022-12-18T03:59:01;94.55;;;25.05;;
37785;SDS011;23625;48.784;9.336;2022-12-18T04:01:37;94.95;;;24.77;;
37785;SDS011;23625;48.784;9.336;2022-12-18T04:04:05;99.05;;;23.67;;
37785;SDS011;23625;48.784;9.336;2022-12-18T04:06:34;84.78;;;22.70;;
37785;SDS011;23625;48.784;9.336;2022-12-18T04:09:02;91.38;;;23.45;;
37785;SDS011;23625;48.784;9.336;2022-12-18T04:11:28;97.55;;;24.85;;
37785;SDS011;23625;48.784;9.336;2022-12-18T04:13:57;95.75;;;24.55;;
37785;SDS011;23625;48.784;9.336;2022-12-18T04:16:24;87.07;;;25.70;;
37785;SDS011;23625;48.784;9.336;2022-12-18T04:18:53;83.05;;;24.50;;
37785;SDS011;23625;48.784;9.336;2022-12-18T04:21:19;84.43;;;23.67;;
37785;SDS011;23625;48.784;9.336;2022-12-18T04:23:45;88.07;;;23.33;;
37785;SDS011;23625;48.784;9.336;2022-12-18T04:26:11;87.07;;;23.73;;
37785;SDS011;23625;48.784;9.336;2022-12-18T04:28:36;89.45;;;26.02;;
37785;SDS011;23625;48.784;9.336;2022-12-18T04:31:02;102.90;;;25.83;;
37785;SDS011;23625;48.784;9.336;2022-12-18T04:33:27;92.00;;;24.23;;
37785;SDS011;23625;48.784;9.336;2022-12-18T04:35:53;91.10;;;24.20;;
37785;SDS011;23625;48.784;9.336;2022-12-18T04:38:18;82.30;;;23.50;;
37785;SDS011;23625;48.784;9.336;2022-12-18T04:40:44;92.05;;;25.65;;
37785;SDS011;23625;48.784;9.336;2022-12-18T04:43:10;86.57;;;23.27;;
37785;SDS011;23625;48.784;9.336;2022-12-18T04:45:35;85.03;;;23.92;;
37785;SDS011;23625;48.784;9.336;2022-12-18T04:48:01;81.60;;;23.10;;
37785;SDS011;23625;48.784;9.336;2022-12-18T04:50:28;90.70;;;25.73;;
37785;SDS011;23625;48.784;9.336;2022-12-18T04:52:54;88.90;;;22.83;;
37785;SDS011;23625;48.784;9.336;2022-12-18T04:55:20;88.65;;;21.05;;
37785;SDS011;23625;48.784;9.336;2022-12-18T04:57:46;90.57;;;24.00;;
37785;SDS011;23625;48.784;9.336;2022-12-18T05:00:11;83.30;;;23.10;;
37785;SDS011;23625;48.784;9.336;2022-12-18T05:02:37;87.45;;;22.50;;
37785;SDS011;23625;48.784;9.336;2022-12-18T05:05:03;90.68;;;24.02;;
37785;SDS011;23625;48.784;9.336;2022-12-18T05:07:29;93.85;;;25.63;;
37785;SDS011;23625;48.784;9.336;2022-12-18T05:09:55;73.05;;;23.08;;
37785;SDS011;23625;48.784;9.336;2022-12-18T05:12:21;89.80;;;23.50;;
37785;SDS011;23625;48.784;9.336;2022-12-18T05:14:46;88.07;;;23.40;;
37785;SDS011;23625;48.784;9.336;2022-12-18T05:17:12;74.47;;;21.30;;
37785;SDS011;23625;48.784;9.336;2022-12-18T05:19:37;83.20;;;22.60;;
37785;SDS011;23625;48.784;9.336;2022-12-18T05:22:03;85.88;;;22.48;;
37785;SDS011;23625;48.784;9.336;2022-12-18T05:24:28;85.80;;;23.02;;
37785;SDS011;23625;48.784;9.336;2022-12-18T05:26:54;75.72;;;21.08;;
37785;SDS011;23625;48.784;9.336;2022-12-18T05:29:20;79.68;;;21.98;;
37785;SDS011;23625;48.784;9.336;2022-12-18T05:31:45;79.75;;;22.98;;
37785;SDS011;23625;48.784;9.336;2022-12-18T05:34:11;78.78;;;22.38;;
37785;SDS011;23625;48.784;9.336;2022-12-18T05:36:36;96.60;;;24.63;;
37785;SDS011;23625;48.784;9.336;2022-12-18T05:39:02;73.03;;;20.65;;
37785;SDS011;23625;48.784;9.336;2022-12-18T05:41:28;77.85;;;21.55;;
37785;SDS011;23625;48.784;9.336;2022-12-18T05:43:53;80.95;;;23.17;;
37785;SDS011;23625;48.784;9.336;2022-12-18T05:46:19;91.82;;;24.02;;
37785;SDS011;23625;48.784;9.336;2022-12-18T05:48:45;82.28;;;21.92;;
37785;SDS011;23625;48.784;9.336;2022-12-18T05:51:14;86.57;;;22.10;;
37785;SDS011;23625;48.784;9.336;2022-12-18T05:53:41;78.78;;;21.92;;
37785;SDS011;23625;48.784;9.336;2022-12-18T05:56:09;79.43;;;22.45;;
37785;SDS011;23625;48.784;9.336;2022-12-18T05:58:40;88.10;;;22.75;;
37785;SDS011;23625;48.784;9.336;2022-12-18T06:01:07;80.60;;;21.55;;
37785;SDS011;23625;48.784;9.336;2022-12-18T06:03:35;75.68;;;21.20;;
37785;SDS011;23625;48.784;9.336;2022-12-18T06:06:01;81.00;;;21.35;;
37785;SDS011;23625;48.784;9.336;2022-12-18T06:08:26;75.35;;;21.65;;
37785;SDS011;23625;48.784;9.336;2022-12-18T06:10:52;80.18;;;20.52;;
37785;SDS011;23625;48.784;9.336;2022-12-18T06:13:18;73.35;;;20.08;;
37785;SDS011;23625;48.784;9.336;2022-12-18T06:15:44;84.03;;;24.05;;
37785;SDS011;23625;48.784;9.336;2022-12-18T06:18:10;84.90;;;24.08;;
37785;SDS011;23625;48.784;9.336;2022-12-18T06:20:36;97.72;;;29.08;;
37785;SDS011;23625;48.784;9.336;2022-12-18T06:23:04;105.43;;;28.50;;
37785;SDS011;23625;48.784;9.336;2022-12-18T06:25:30;84.28;;;24.70;;
37785;SDS011;23625;48.784;9.336;2022-12-18T06:27:56;94.28;;;33.45;;
37785;SDS011;23625;48.784;9.336;2022-12-18T06:30:21;77.18;;;23.98;;
37785;SDS011;23625;48.784;9.336;2022-12-18T06:32:48;88.57;;;21.38;;
37785;SDS011;23625;48.784;9.336;2022-12-18T06:35:14;77.03;;;21.33;;
37785;SDS011;23625;48.784;9.336;2022-12-18T06:37:39;76.10;;;22.27;;
37785;SDS011;23625;48.784;9.336;2022-12-18T06:40:08;76.20;;;23.25;;
37785;SDS011;23625;48.784;9.336;2022-12-18T06:42:34;75.45;;;22.45;;
37785;SDS011;23625;48.784;9.336;2022-12-18T06:44:59;73.47;;;20.85;;
37785;SDS011;23625;48.784;9.336;2022-12-18T06:47:25;66.88;;;19.77;;
37785;SDS011;23625;48.784;9.336;2022-12-18T06:49:50;83.90;;;21.65;;
37785;SDS011;23625;48.784;9.336;2022-12-18T06:52:16;62.08;;;18.05;;
37785;SDS011;23625;48.784;9.336;2022-12-18T06:54:42;69.32;;;19.48;;
37785;SDS011;23625;48.784;9.336;2022-12-18T06:57:07;64.65;;;18.10;;
37785;SDS011;23625;48.784;9.336;2022-12-18T06:59:33;67.43;;;17.42;;
37785;SDS011;23625;48.784;9.336;2022-12-18T07:01:58;68.15;;;18.05;;
37785;SDS011;23625;48.784;9.336;2022-12-18T07:04:28;68.40;;;18.88;;
37785;SDS011;23625;48.784;9.336;2022-12-18T07:06:54;94.38;;;21.58;;
37785;SDS011;23625;48.784;9.336;2022-12-18T07:09:20;80.38;;;22.50;;
37785;SDS011;23625;48.784;9.336;2022-12-18T07:11:45;72.68;;;19.85;;
37785;SDS011;23625;48.784;9.336;2022-12-18T07:14:11;72.90;;;19.02;;
37785;SDS011;23625;48.784;9.336;2022-12-18T07:16:37;53.85;;;17.55;;
37785;SDS011;23625;48.784;9.336;2022-12-18T07:19:02;86.60;;;25.30;;
37785;SDS011;23625;48.784;9.336;2022-12-18T07:21:28;67.53;;;18.52;;
37785;SDS011;23625;48.784;9.336;2022-12-18T07:23:53;71.25;;;19.80;;
37785;SDS011;23625;48.784;9.336;2022-12-18T07:26:19;65.53;;;16.75;;
37785;SDS011;23625;48.784;9.336;2022-12-18T07:28:46;66.18;;;18.38;;
37785;SDS011;23625;48.784;9.336;2022-12-18T07:31:13;54.20;;;17.70;;
37785;SDS011;23625;48.784;9.336;2022-12-18T07:33:41;71.32;;;20.13;;
37785;SDS011;23625;48.784;9.336;2022-12-18T07:36:07;61.42;;;16.38;;
37785;SDS011;23625;48.784;9.336;2022-12-18T07:38:34;70.35;;;18.38;;
37785;SDS011;23625;48.784;9.336;2022-12-18T07:41:01;56.55;;;17.10;;
37785;SDS011;23625;48.784;9.336;2022-12-18T07:43:28;68.15;;;17.85;;
37785;SDS011;23625;48.784;9.336;2022-12-18T07:45:53;69.05;;;17.13;;
37785;SDS011;23625;48.784;9.336;2022-12-18T07:48:19;187.75;;;48.08;;
37785;SDS011;23625;48.784;9.336;2022-12-18T07:50:44;141.23;;;37.75;;
37785;SDS011;23625;48.784;9.336;2022-12-18T07:53:10;142.85;;;35.92;;
37785;SDS011;23625;48.784;9.336;2022-12-18T07:55:36;101.72;;;26.30;;
37785;SDS011;23625;48.784;9.336;2022-12-18T07:58:02;87.00;;;23.35;;
37785;SDS011;23625;48.784;9.336;2022-12-18T08:00:28;72.32;;;21.52;;
37785;SDS011;23625;48.784;9.336;2022-12-18T08:02:54;74.40;;;20.02;;
37785;SDS011;23625;48.784;9.336;2022-12-18T08:05:20;78.45;;;22.67;;
37785;SDS011;23625;48.784;9.336;2022-12-18T08:07:46;86.13;;;21.27;;
37785;SDS011;23625;48.784;9.336;2022-12-18T08:10:11;67.85;;;19.55;;
37785;SDS011;23625;48.784;9.336;2022-12-18T08:12:37;60.05;;;17.52;;
37785;SDS011;23625;48.784;9.336;2022-12-18T08:15:03;70.57;;;18.20;;
37785;SDS011;23625;48.784;9.336;2022-12-18T08:17:29;68.05;;;18.15;;
37785;SDS011;23625;48.784;9.336;2022-12-18T08:19:55;69.70;;;18.65;;
37785;SDS011;23625;48.784;9.336;2022-12-18T08:22:20;78.28;;;21.92;;
37785;SDS011;23625;48.784;9.336;2022-12-18T08:24:46;74.80;;;18.75;;
37785;SDS011;23625;48.784;9.336;2022-12-18T08:27:11;80.72;;;19.58;;
37785;SDS011;23625;48.784;9.336;2022-12-18T08:29:37;61.28;;;17.55;;
37785;SDS011;23625;48.784;9.336;2022-12-18T08:32:03;75.63;;;17.60;;
37785;SDS011;23625;48.784;9.336;2022-12-18T08:34:29;68.65;;;17.48;;
37785;SDS011;23625;48.784;9.336;2022-12-18T08:36:54;69.53;;;19.30;;
37785;SDS011;23625;48.784;9.336;2022-12-18T08:39:20;56.78;;;15.25;;
37785;SDS011;23625;48.784;9.336;2022-12-18T08:41:45;60.65;;;16.38;;
37785;SDS011;23625;48.784;9.336;2022-12-18T08:44:31;58.25;;;17.33;;
37785;SDS011;23625;48.784;9.336;2022-12-18T08:47:02;65.75;;;17.42;;
37785;SDS011;23625;48.784;9.336;2022-12-18T08:49:29;66.00;;;20.73;;
37785;SDS011;23625;48.784;9.336;2022-12-18T08:51:55;77.28;;;20.55;;
37785;SDS011;23625;48.784;9.336;2022-12-18T08:54:22;69.07;;;19.27;;
37785;SDS011;23625;48.784;9.336;2022-12-18T08:56:48;63.30;;;17.27;;
37785;SDS011;23625;48.784;9.336;2022-12-18T08:59:14;69.57;;;18.95;;
37785;SDS011;23625;48.784;9.336;2022-12-18T09:01:41;79.90;;;21.33;;
37785;SDS011;23625;48.784;9.336;2022-12-18T09:04:07;86.07;;;21.80;;
37785;SDS011;23625;48.784;9.336;2022-12-18T09:06:34;68.55;;;19.08;;
37785;SDS011;23625;48.784;9.336;2022-12-18T09:08:59;346.30;;;64.53;;
37785;SDS011;23625;48.784;9.336;2022-12-18T09:11:26;238.70;;;53.45;;
37785;SDS011;23625;48.784;9.336;2022-12-18T09:13:53;153.85;;;37.90;;
37785;SDS011;23625;48.784;9.336;2022-12-18T09:16:20;153.13;;;35.15;;
37785;SDS011;23625;48.784;9.336;2022-12-18T09:18:47;107.80;;;30.27;;
37785;SDS011;23625;48.784;9.336;2022-12-18T09:21:13;81.90;;;24.15;;
37785;SDS011;23625;48.784;9.336;2022-12-18T09:23:48;84.15;;;22.48;;
37785;SDS011;23625;48.784;9.336;2022-12-18T09:26:18;83.85;;;25.63;;
37785;SDS011;23625;48.784;9.336;2022-12-18T09:28:43;90.10;;;24.67;;
37785;SDS011;23625;48.784;9.336;2022-12-18T09:31:10;90.22;;;26.58;;
37785;SDS011;23625;48.784;9.336;2022-12-18T09:33:40;106.43;;;30.70;;
37785;SDS011;23625;48.784;9.336;2022-12-18T09:36:06;125.35;;;36.55;;
37785;SDS011;23625;48.784;9.336;2022-12-18T09:38:34;122.85;;;36.88;;
37785;SDS011;23625;48.784;9.336;2022-12-18T09:41:01;110.97;;;35.47;;
37785;SDS011;23625;48.784;9.336;2022-12-18T09:43:48;103.53;;;34.38;;
37785;SDS011;23625;48.784;9.336;2022-12-18T09:46:19;103.53;;;32.58;;
37785;SDS011;23625;48.784;9.336;2022-12-18T09:48:59;102.38;;;30.23;;
37785;SDS011;23625;48.784;9.336;2022-12-18T09:51:28;87.95;;;28.20;;
37785;SDS011;23625;48.784;9.336;2022-12-18T09:54:06;95.32;;;29.30;;
37785;SDS011;23625;48.784;9.336;2022-12-18T09:56:38;83.50;;;25.98;;
37785;SDS011;23625;48.784;9.336;2022-12-18T09:59:09;82.05;;;23.25;;
37785;SDS011;23625;48.784;9.336;2022-12-18T10:02:20;79.85;;;22.35;;
37785;SDS011;23625;48.784;9.336;2022-12-18T10:04:54;89.50;;;24.05;;
37785;SDS011;23625;48.784;9.336;2022-12-18T10:10:25;87.13;;;24.15;;
37785;SDS011;23625;48.784;9.336;2022-12-18T10:13:18;77.05;;;25.20;;
37785;SDS011;23625;48.784;9.336;2022-12-18T10:16:03;74.03;;;23.85;;
37785;SDS011;23625;48.784;9.336;2022-12-18T10:18:50;74.47;;;22.95;;
37785;SDS011;23625;48.784;9.336;2022-12-18T10:21:32;67.93;;;22.52;;
37785;SDS011;23625;48.784;9.336;2022-12-18T10:26:41;64.40;;;20.83;;
37785;SDS011;23625;48.784;9.336;2022-12-18T10:29:14;66.90;;;22.05;;
37785;SDS011;23625;48.784;9.336;2022-12-18T10:31:41;62.30;;;19.63;;
37785;SDS011;23625;48.784;9.336;2022-12-18T10:34:12;62.13;;;20.02;;
37785;SDS011;23625;48.784;9.336;2022-12-18T10:36:40;63.08;;;21.33;;
37785;SDS011;23625;48.784;9.336;2022-12-18T10:39:23;61.67;;;20.85;;
37785;SDS011;23625;48.784;9.336;2022-12-18T10:41:51;69.32;;;21.25;;
37785;SDS011;23625;48.784;9.336;2022-12-18T10:44:20;64.85;;;20.38;;
37785;SDS011;23625;48.784;9.336;2022-12-18T10:46:51;68.22;;;20.33;;
37785;SDS011;23625;48.784;9.336;2022-12-18T10:51:48;68.05;;;22.00;;
37785;SDS011;23625;48.784;9.336;2022-12-18T10:54:15;61.10;;;21.60;;
37785;SDS011;23625;48.784;9.336;2022-12-18T10:56:44;56.97;;;19.27;;
37785;SDS011;23625;48.784;9.336;2022-12-18T10:59:11;60.47;;;20.58;;
37785;SDS011;23625;48.784;9.336;2022-12-18T11:04:26;60.50;;;20.10;;
37785;SDS011;23625;48.784;9.336;2022-12-18T11:09:30;57.10;;;18.77;;
37785;SDS011;23625;48.784;9.336;2022-12-18T11:11:58;56.53;;;19.50;;
37785;SDS011;23625;48.784;9.336;2022-12-18T11:14:30;54.75;;;18.40;;
37785;SDS011;23625;48.784;9.336;2022-12-18T11:17:17;54.20;;;18.45;;
37785;SDS011;23625;48.784;9.336;2022-12-18T11:19:52;57.55;;;19.60;;
37785;SDS011;23625;48.784;9.336;2022-12-18T11:22:28;55.72;;;20.23;;
37785;SDS011;23625;48.784;9.336;2022-12-18T11:24:59;52.05;;;18.30;;
37785;SDS011;23625;48.784;9.336;2022-12-18T11:27:47;56.70;;;19.23;;
37785;SDS011;23625;48.784;9.336;2022-12-18T11:33:36;59.97;;;20.77;;
37785;SDS011;23625;48.784;9.336;2022-12-18T11:38:22;73.22;;;23.95;;
37785;SDS011;23625;48.784;9.336;2022-12-18T11:41:38;62.22;;;21.10;;
37785;SDS011;23625;48.784;9.336;2022-12-18T11:44:13;58.33;;;19.45;;
37785;SDS011;23625;48.784;9.336;2022-12-18T11:46:40;57.67;;;19.02;;
37785;SDS011;23625;48.784;9.336;2022-12-18T11:51:50;59.05;;;19.88;;
37785;SDS011;23625;48.784;9.336;2022-12-18T11:54:20;59.95;;;20.30;;
37785;SDS011;23625;48.784;9.336;2022-12-18T11:56:48;56.60;;;19.10;;
37785;SDS011;23625;48.784;9.336;2022-12-18T12:05:10;63.03;;;20.10;;
37785;SDS011;23625;48.784;9.336;2022-12-18T12:07:55;60.05;;;20.33;;
37785;SDS011;23625;48.784;9.336;2022-12-18T12:15:59;60.70;;;20.52;;
37785;SDS011;23625;48.784;9.336;2022-12-18T12:21:07;72.78;;;23.17;;
37785;SDS011;23625;48.784;9.336;2022-12-18T12:26:15;61.25;;;21.15;;
37785;SDS011;23625;48.784;9.336;2022-12-18T12:29:14;58.80;;;21.25;;
37785;SDS011;23625;48.784;9.336;2022-12-18T12:32:00;63.33;;;21.33;;
37785;SDS011;23625;48.784;9.336;2022-12-18T12:39:46;66.43;;;22.25;;
37785;SDS011;23625;48.784;9.336;2022-12-18T12:42:15;59.42;;;20.20;;
37785;SDS011;23625;48.784;9.336;2022-12-18T12:45:17;59.65;;;19.90;;
37785;SDS011;23625;48.784;9.336;2022-12-18T12:48:11;60.03;;;20.55;;
37785;SDS011;23625;48.784;9.336;2022-12-18T12:50:52;57.13;;;20.23;;
37785;SDS011;23625;48.784;9.336;2022-12-18T12:53:23;68.40;;;23.60;;
37785;SDS011;23625;48.784;9.336;2022-12-18T12:55:54;69.78;;;23.33;;
37785;SDS011;23625;48.784;9.336;2022-12-18T12:58:36;74.38;;;22.42;;
37785;SDS011;23625;48.784;9.336;2022-12-18T13:01:18;60.50;;;21.23;;
37785;SDS011;23625;48.784;9.336;2022-12-18T13:07:12;58.40;;;19.23;;
37785;SDS011;23625;48.784;9.336;2022-12-18T13:18:04;75.35;;;24.23;;
37785;SDS011;23625;48.784;9.336;2022-12-18T13:20:47;77.15;;;24.55;;
37785;SDS011;23625;48.784;9.336;2022-12-18T13:23:25;73.72;;;22.27;;
37785;SDS011;23625;48.784;9.336;2022-12-18T13:31:11;77.50;;;27.20;;
37785;SDS011;23625;48.784;9.336;2022-12-18T13:34:19;71.43;;;23.90;;
37785;SDS011;23625;48.784;9.336;2022-12-18T13:36:45;72.18;;;25.13;;
37785;SDS011;23625;48.784;9.336;2022-12-18T13:41:47;76.93;;;26.73;;
37785;SDS011;23625;48.784;9.336;2022-12-18T13:47:03;108.30;;;30.90;;
37785;SDS011;23625;48.784;9.336;2022-12-18T13:49:37;90.18;;;28.88;;
37785;SDS011;23625;48.784;9.336;2022-12-18T13:55:15;79.85;;;24.75;;
37785;SDS011;23625;48.784;9.336;2022-12-18T13:57:44;65.82;;;25.17;;
37785;SDS011;23625;48.784;9.336;2022-12-18T14:02:44;74.75;;;25.30;;
37785;SDS011;23625;48.784;9.336;2022-12-18T14:07:49;70.57;;;22.80;;
37785;SDS011;23625;48.784;9.336;2022-12-18T14:10:15;73.22;;;24.42;;
37785;SDS011;23625;48.784;9.336;2022-12-18T14:12:44;64.38;;;21.63;;
37785;SDS011;23625;48.784;9.336;2022-12-18T14:17:54;68.13;;;22.27;;
37785;SDS011;23625;48.784;9.336;2022-12-18T14:20:24;76.03;;;24.35;;
37785;SDS011;23625;48.784;9.336;2022-12-18T14:22:51;70.07;;;22.73;;
37785;SDS011;23625;48.784;9.336;2022-12-18T14:27:51;67.80;;;22.83;;
37785;SDS011;23625;48.784;9.336;2022-12-18T14:30:31;74.18;;;23.42;;
37785;SDS011;23625;48.784;9.336;2022-12-18T14:33:00;69.38;;;21.58;;
37785;SDS011;23625;48.784;9.336;2022-12-18T14:35:40;71.35;;;24.10;;
37785;SDS011;23625;48.784;9.336;2022-12-18T14:38:30;64.40;;;21.20;;
37785;SDS011;23625;48.784;9.336;2022-12-18T14:41:04;69.90;;;21.40;;
37785;SDS011;23625;48.784;9.336;2022-12-18T14:43:41;69.93;;;23.75;;
37785;SDS011;23625;48.784;9.336;2022-12-18T14:49:30;63.28;;;18.55;;
37785;SDS011;23625;48.784;9.336;2022-12-18T14:51:58;63.10;;;21.73;;
37785;SDS011;23625;48.784;9.336;2022-12-18T14:54:29;67.35;;;21.30;;
37785;SDS011;23625;48.784;9.336;2022-12-18T14:57:00;57.10;;;17.88;;
37785;SDS011;23625;48.784;9.336;2022-12-18T14:59:28;64.82;;;21.60;;
37785;SDS011;23625;48.784;9.336;2022-12-18T15:04:36;65.78;;;19.17;;
37785;SDS011;23625;48.784;9.336;2022-12-18T15:07:14;59.58;;;19.48;;
37785;SDS011;23625;48.784;9.336;2022-12-18T15:09:41;69.13;;;22.35;;
37785;SDS011;23625;48.784;9.336;2022-12-18T15:12:29;61.92;;;19.25;;
37785;SDS011;23625;48.784;9.336;2022-12-18T15:14:59;58.40;;;20.70;;
37785;SDS011;23625;48.784;9.336;2022-12-18T15:17:25;64.82;;;21.40;;
37785;SDS011;23625;48.784;9.336;2022-12-18T15:19:52;69.13;;;24.25;;
37785;SDS011;23625;48.784;9.336;2022-12-18T15:22:27;85.80;;;30.10;;
37785;SDS011;23625;48.784;9.336;2022-12-18T15:25:00;75.82;;;25.00;;
37785;SDS011;23625;48.784;9.336;2022-12-18T15:27:28;84.20;;;29.42;;
37785;SDS011;23625;48.784;9.336;2022-12-18T15:32:35;70.45;;;23.65;;
37785;SDS011;23625;48.784;9.336;2022-12-18T15:37:34;74.93;;;23.65;;
37785;SDS011;23625;48.784;9.336;2022-12-18T15:39:59;80.80;;;27.23;;
37785;SDS011;23625;48.784;9.336;2022-12-18T15:42:25;85.30;;;28.80;;
37785;SDS011;23625;48.784;9.336;2022-12-18T15:45:12;80.93;;;26.90;;
37785;SDS011;23625;48.784;9.336;2022-12-18T15:47:39;78.93;;;25.88;;
37785;SDS011;23625;48.784;9.336;2022-12-18T15:50:05;77.47;;;27.70;;
37785;SDS011;23625;48.784;9.336;2022-12-18T15:52:38;81.90;;;27.65;;
37785;SDS011;23625;48.784;9.336;2022-12-18T15:55:10;67.97;;;19.40;;
37785;SDS011;23625;48.784;9.336;2022-12-18T15:57:56;85.28;;;27.20;;
37785;SDS011;23625;48.784;9.336;2022-12-18T16:00:22;91.45;;;27.10;;
37785;SDS011;23625;48.784;9.336;2022-12-18T16:02:47;85.35;;;27.98;;
37785;SDS011;23625;48.784;9.336;2022-12-18T16:05:13;92.55;;;26.75;;
37785;SDS011;23625;48.784;9.336;2022-12-18T16:07:41;76.93;;;26.88;;
37785;SDS011;23625;48.784;9.336;2022-12-18T16:10:08;81.32;;;27.45;;
37785;SDS011;23625;48.784;9.336;2022-12-18T16:12:33;76.07;;;24.63;;
37785;SDS011;23625;48.784;9.336;2022-12-18T16:15:00;81.60;;;26.38;;
37785;SDS011;23625;48.784;9.336;2022-12-18T16:17:25;83.72;;;25.27;;
37785;SDS011;23625;48.784;9.336;2022-12-18T16:19:51;83.60;;;23.20;;
37785;SDS011;23625;48.784;9.336;2022-12-18T16:22:27;74.57;;;23.52;;
37785;SDS011;23625;48.784;9.336;2022-12-18T16:24:54;79.63;;;25.40;;
37785;SDS011;23625;48.784;9.336;2022-12-18T16:27:21;72.85;;;23.90;;
37785;SDS011;23625;48.784;9.336;2022-12-18T16:29:48;80.75;;;24.25;;
37785;SDS011;23625;48.784;9.336;2022-12-18T16:32:15;71.18;;;23.33;;
37785;SDS011;23625;48.784;9.336;2022-12-18T16:34:43;75.30;;;24.50;;
37785;SDS011;23625;48.784;9.336;2022-12-18T16:37:10;73.07;;;22.63;;